sensor_id;sensor_type;location;lat;lon;timestamp;P1;durP1;ratioP1;P2;durP2;ratioP2
35418;SDS011;21525;41.240;16.500;2023-03-23T00:02:25;21.23;;;14.40;;
35418;SDS011;21525;41.240;16.500;2023-03-23T00:04:52;19.58;;;14.98;;
35418;SDS011;21525;41.240;16.500;2023-03-23T00:07:20;20.83;;;14.57;;
35418;SDS011;21525;41.240;16.500;2023-03-23T00:09:47;23.83;;;14.98;;
35418;SDS011;21525;41.240;16.500;2023-03-23T00:12:20;20.35;;;14.35;;
35418;SDS011;21525;41.240;16.500;2023-03-23T00:17:26;19.70;;;14.65;;
35418;SDS011;21525;41.240;16.500;2023-03-23T00:19:53;19.38;;;14.80;;
35418;SDS011;21525;41.240;16.500;2023-03-23T00:22:19;20.77;;;14.93;;
35418;SDS011;21525;41.240;16.500;2023-03-23T00:24:47;19.52;;;14.32;;
35418;SDS011;21525;41.240;16.500;2023-03-23T00:27:16;19.75;;;14.35;;
35418;SDS011;21525;41.240;16.500;2023-03-23T00:29:42;19.77;;;14.77;;
35418;SDS011;21525;41.240;16.500;2023-03-23T00:32:10;21.23;;;15.10;;
35418;SDS011;21525;41.240;16.500;2023-03-23T00:34:42;18.90;;;13.05;;
35418;SDS011;21525;41.240;16.500;2023-03-23T00:37:08;21.98;;;14.18;;
35418;SDS011;21525;41.240;16.500;2023-03-23T00:39:35;18.08;;;13.10;;
35418;SDS011;21525;41.240;16.500;2023-03-23T00:42:04;17.17;;;12.77;;
35418;SDS011;21525;41.240;16.500;2023-03-23T00:44:30;17.42;;;11.85;;
35418;SDS011;21525;41.240;16.500;2023-03-23T00:47:00;17.67;;;12.20;;
35418;SDS011;21525;41.240;16.500;2023-03-23T00:49:26;16.75;;;12.45;;
35418;SDS011;21525;41.240;16.500;2023-03-23T00:51:53;18.60;;;13.05;;
35418;SDS011;21525;41.240;16.500;2023-03-23T00:54:23;16.77;;;12.50;;
35418;SDS011;21525;41.240;16.500;2023-03-23T00:56:49;19.63;;;13.43;;
35418;SDS011;21525;41.240;16.500;2023-03-23T00:59:16;22.63;;;14.95;;
35418;SDS011;21525;41.240;16.500;2023-03-23T01:01:43;17.92;;;14.40;;
35418;SDS011;21525;41.240;16.500;2023-03-23T01:04:09;22.98;;;16.55;;
35418;SDS011;21525;41.240;16.500;2023-03-23T01:06:38;23.08;;;16.98;;
35418;SDS011;21525;41.240;16.500;2023-03-23T01:09:05;21.60;;;15.57;;
35418;SDS011;21525;41.240;16.500;2023-03-23T01:11:33;19.92;;;15.45;;
35418;SDS011;21525;41.240;16.500;2023-03-23T01:13:59;19.23;;;15.02;;
35418;SDS011;21525;41.240;16.500;2023-03-23T01:16:25;23.08;;;15.05;;
35418;SDS011;21525;41.240;16.500;2023-03-23T01:18:51;19.88;;;15.35;;
35418;SDS011;21525;41.240;16.500;2023-03-23T01:21:18;21.83;;;15.98;;
35418;SDS011;21525;41.240;16.500;2023-03-23T01:23:46;19.38;;;14.05;;
35418;SDS011;21525;41.240;16.500;2023-03-23T01:26:17;17.23;;;13.98;;
35418;SDS011;21525;41.240;16.500;2023-03-23T01:28:47;17.67;;;13.48;;
35418;SDS011;21525;41.240;16.500;2023-03-23T01:31:15;16.92;;;13.80;;
35418;SDS011;21525;41.240;16.500;2023-03-23T01:33:43;15.45;;;11.57;;
35418;SDS011;21525;41.240;16.500;2023-03-23T01:36:11;14.52;;;11.70;;
35418;SDS011;21525;41.240;16.500;2023-03-23T01:38:41;15.80;;;11.88;;
35418;SDS011;21525;41.240;16.500;2023-03-23T01:41:09;15.13;;;11.95;;
35418;SDS011;21525;41.240;16.500;2023-03-23T01:43:35;19.77;;;11.50;;
35418;SDS011;21525;41.240;16.500;2023-03-23T01:46:02;19.83;;;12.35;;
35418;SDS011;21525;41.240;16.500;2023-03-23T01:48:29;14.73;;;11.70;;
35418;SDS011;21525;41.240;16.500;2023-03-23T01:53:51;14.18;;;10.85;;
35418;SDS011;21525;41.240;16.500;2023-03-23T01:56:21;13.27;;;10.77;;
35418;SDS011;21525;41.240;16.500;2023-03-23T01:58:55;15.52;;;10.93;;
35418;SDS011;21525;41.240;16.500;2023-03-23T02:01:23;14.55;;;11.07;;
35418;SDS011;21525;41.240;16.500;2023-03-23T02:03:53;14.57;;;10.80;;
35418;SDS011;21525;41.240;16.500;2023-03-23T02:06:21;16.40;;;11.07;;
35418;SDS011;21525;41.240;16.500;2023-03-23T02:09:05;14.38;;;10.88;;
35418;SDS011;21525;41.240;16.500;2023-03-23T02:11:34;16.25;;;11.45;;
35418;SDS011;21525;41.240;16.500;2023-03-23T02:14:00;14.77;;;11.45;;
35418;SDS011;21525;41.240;16.500;2023-03-23T02:16:44;14.48;;;11.50;;
35418;SDS011;21525;41.240;16.500;2023-03-23T02:22:36;13.15;;;10.93;;
35418;SDS011;21525;41.240;16.500;2023-03-23T02:38:37;14.63;;;11.10;;
35418;SDS011;21525;41.240;16.500;2023-03-23T02:41:09;14.65;;;11.50;;
35418;SDS011;21525;41.240;16.500;2023-03-23T02:43:39;16.25;;;11.48;;
35418;SDS011;21525;41.240;16.500;2023-03-23T02:46:08;14.88;;;11.90;;
35418;SDS011;21525;41.240;16.500;2023-03-23T02:48:35;19.80;;;13.48;;
35418;SDS011;21525;41.240;16.500;2023-03-23T02:51:03;17.75;;;12.85;;
35418;SDS011;21525;41.240;16.500;2023-03-23T02:53:31;17.77;;;12.38;;
35418;SDS011;21525;41.240;16.500;2023-03-23T03:00:57;19.38;;;13.40;;
35418;SDS011;21525;41.240;16.500;2023-03-23T03:03:28;22.90;;;16.48;;
35418;SDS011;21525;41.240;16.500;2023-03-23T03:06:02;20.38;;;15.45;;
35418;SDS011;21525;41.240;16.500;2023-03-23T03:08:50;18.63;;;13.77;;
35418;SDS011;21525;41.240;16.500;2023-03-23T03:11:22;19.55;;;12.10;;
35418;SDS011;21525;41.240;16.500;2023-03-23T03:14:53;15.38;;;12.02;;
35418;SDS011;21525;41.240;16.500;2023-03-23T03:16:56;15.77;;;12.30;;
35418;SDS011;21525;41.240;16.500;2023-03-23T03:19:29;16.27;;;11.75;;
35418;SDS011;21525;41.240;16.500;2023-03-23T03:21:59;14.77;;;11.85;;
35418;SDS011;21525;41.240;16.500;2023-03-23T03:24:36;16.58;;;11.85;;
35418;SDS011;21525;41.240;16.500;2023-03-23T03:27:04;14.35;;;10.85;;
35418;SDS011;21525;41.240;16.500;2023-03-23T03:29:44;16.38;;;12.40;;
35418;SDS011;21525;41.240;16.500;2023-03-23T03:32:16;15.75;;;12.45;;
35418;SDS011;21525;41.240;16.500;2023-03-23T03:34:47;16.60;;;13.13;;
35418;SDS011;21525;41.240;16.500;2023-03-23T03:37:13;16.58;;;12.35;;
35418;SDS011;21525;41.240;16.500;2023-03-23T03:39:41;16.00;;;11.80;;
35418;SDS011;21525;41.240;16.500;2023-03-23T03:42:09;13.38;;;11.00;;
35418;SDS011;21525;41.240;16.500;2023-03-23T03:44:35;13.75;;;10.43;;
35418;SDS011;21525;41.240;16.500;2023-03-23T03:47:01;13.73;;;10.15;;
35418;SDS011;21525;41.240;16.500;2023-03-23T03:49:28;14.98;;;11.48;;
35418;SDS011;21525;41.240;16.500;2023-03-23T03:51:54;30.30;;;14.70;;
35418;SDS011;21525;41.240;16.500;2023-03-23T03:54:46;18.17;;;12.23;;
35418;SDS011;21525;41.240;16.500;2023-03-23T03:57:12;16.55;;;12.05;;
35418;SDS011;21525;41.240;16.500;2023-03-23T03:59:56;14.55;;;11.23;;
35418;SDS011;21525;41.240;16.500;2023-03-23T04:02:44;18.30;;;11.75;;
35418;SDS011;21525;41.240;16.500;2023-03-23T04:05:40;15.75;;;11.25;;
35418;SDS011;21525;41.240;16.500;2023-03-23T04:08:10;16.70;;;11.18;;
35418;SDS011;21525;41.240;16.500;2023-03-23T04:10:37;14.65;;;11.30;;
35418;SDS011;21525;41.240;16.500;2023-03-23T04:13:03;12.63;;;9.50;;
35418;SDS011;21525;41.240;16.500;2023-03-23T04:15:35;16.83;;;10.23;;
35418;SDS011;21525;41.240;16.500;2023-03-23T04:18:02;14.82;;;9.63;;
35418;SDS011;21525;41.240;16.500;2023-03-23T04:20:29;13.05;;;9.05;;
35418;SDS011;21525;41.240;16.500;2023-03-23T04:22:55;18.65;;;10.05;;
35418;SDS011;21525;41.240;16.500;2023-03-23T04:25:23;18.93;;;12.03;;
35418;SDS011;21525;41.240;16.500;2023-03-23T04:27:51;18.40;;;13.23;;
35418;SDS011;21525;41.240;16.500;2023-03-23T04:30:21;19.30;;;13.00;;
35418;SDS011;21525;41.240;16.500;2023-03-23T04:33:09;14.68;;;11.15;;
35418;SDS011;21525;41.240;16.500;2023-03-23T04:35:40;16.80;;;10.18;;
35418;SDS011;21525;41.240;16.500;2023-03-23T04:38:14;12.55;;;8.88;;
35418;SDS011;21525;41.240;16.500;2023-03-23T04:40:43;13.73;;;9.30;;
35418;SDS011;21525;41.240;16.500;2023-03-23T04:43:30;15.73;;;9.98;;
35418;SDS011;21525;41.240;16.500;2023-03-23T04:46:04;13.30;;;9.85;;
35418;SDS011;21525;41.240;16.500;2023-03-23T04:48:34;15.85;;;9.73;;
35418;SDS011;21525;41.240;16.500;2023-03-23T04:51:09;17.23;;;10.48;;
35418;SDS011;21525;41.240;16.500;2023-03-23T04:53:36;16.23;;;9.35;;
35418;SDS011;21525;41.240;16.500;2023-03-23T04:56:02;21.70;;;10.75;;
35418;SDS011;21525;41.240;16.500;2023-03-23T04:58:34;16.33;;;10.73;;
35418;SDS011;21525;41.240;16.500;2023-03-23T05:01:10;16.40;;;11.00;;
35418;SDS011;21525;41.240;16.500;2023-03-23T05:03:45;21.13;;;9.98;;
35418;SDS011;21525;41.240;16.500;2023-03-23T05:06:12;19.65;;;10.98;;
35418;SDS011;21525;41.240;16.500;2023-03-23T05:08:38;17.60;;;10.93;;
35418;SDS011;21525;41.240;16.500;2023-03-23T05:11:05;20.85;;;11.32;;
35418;SDS011;21525;41.240;16.500;2023-03-23T05:13:34;16.85;;;10.82;;
35418;SDS011;21525;41.240;16.500;2023-03-23T05:16:04;17.15;;;9.38;;
35418;SDS011;21525;41.240;16.500;2023-03-23T05:18:31;15.35;;;10.35;;
35418;SDS011;21525;41.240;16.500;2023-03-23T05:20:59;25.95;;;16.17;;
35418;SDS011;21525;41.240;16.500;2023-03-23T05:23:27;27.65;;;15.02;;
35418;SDS011;21525;41.240;16.500;2023-03-23T05:26:00;23.88;;;15.13;;
35418;SDS011;21525;41.240;16.500;2023-03-23T05:28:26;26.85;;;15.80;;
35418;SDS011;21525;41.240;16.500;2023-03-23T05:31:09;23.30;;;14.82;;
35418;SDS011;21525;41.240;16.500;2023-03-23T05:33:35;23.15;;;15.40;;
35418;SDS011;21525;41.240;16.500;2023-03-23T05:36:28;27.42;;;16.65;;
35418;SDS011;21525;41.240;16.500;2023-03-23T05:39:20;26.30;;;16.73;;
35418;SDS011;21525;41.240;16.500;2023-03-23T05:42:00;26.33;;;15.77;;
35418;SDS011;21525;41.240;16.500;2023-03-23T05:44:36;30.48;;;17.30;;
35418;SDS011;21525;41.240;16.500;2023-03-23T05:47:03;27.30;;;16.63;;
35418;SDS011;21525;41.240;16.500;2023-03-23T05:49:29;27.35;;;17.13;;
35418;SDS011;21525;41.240;16.500;2023-03-23T05:51:55;28.52;;;17.38;;
35418;SDS011;21525;41.240;16.500;2023-03-23T05:54:21;27.13;;;17.98;;
35418;SDS011;21525;41.240;16.500;2023-03-23T05:56:48;28.73;;;17.27;;
35418;SDS011;21525;41.240;16.500;2023-03-23T05:59:22;24.25;;;15.50;;
35418;SDS011;21525;41.240;16.500;2023-03-23T06:01:51;24.58;;;17.05;;
35418;SDS011;21525;41.240;16.500;2023-03-23T06:04:19;26.48;;;16.67;;
35418;SDS011;21525;41.240;16.500;2023-03-23T06:07:02;27.45;;;17.98;;
35418;SDS011;21525;41.240;16.500;2023-03-23T06:09:28;24.15;;;19.45;;
35418;SDS011;21525;41.240;16.500;2023-03-23T06:12:14;28.50;;;19.15;;
35418;SDS011;21525;41.240;16.500;2023-03-23T06:14:51;28.35;;;20.08;;
35418;SDS011;21525;41.240;16.500;2023-03-23T06:17:22;26.98;;;20.30;;
35418;SDS011;21525;41.240;16.500;2023-03-23T06:19:51;27.02;;;18.63;;
35418;SDS011;21525;41.240;16.500;2023-03-23T06:22:17;22.73;;;18.77;;
35418;SDS011;21525;41.240;16.500;2023-03-23T06:25:02;25.33;;;17.63;;
35418;SDS011;21525;41.240;16.500;2023-03-23T06:27:34;25.55;;;17.40;;
35418;SDS011;21525;41.240;16.500;2023-03-23T06:30:02;28.23;;;17.80;;
35418;SDS011;21525;41.240;16.500;2023-03-23T06:32:31;24.45;;;17.77;;
35418;SDS011;21525;41.240;16.500;2023-03-23T06:34:58;28.92;;;18.65;;
35418;SDS011;21525;41.240;16.500;2023-03-23T06:37:29;28.63;;;19.17;;
35418;SDS011;21525;41.240;16.500;2023-03-23T06:40:11;24.77;;;18.35;;
35418;SDS011;21525;41.240;16.500;2023-03-23T06:42:39;23.13;;;17.13;;
35418;SDS011;21525;41.240;16.500;2023-03-23T06:45:23;23.30;;;17.20;;
35418;SDS011;21525;41.240;16.500;2023-03-23T06:47:56;21.17;;;15.00;;
35418;SDS011;21525;41.240;16.500;2023-03-23T06:50:23;18.35;;;13.90;;
35418;SDS011;21525;41.240;16.500;2023-03-23T06:52:50;19.85;;;12.90;;
35418;SDS011;21525;41.240;16.500;2023-03-23T06:55:17;21.95;;;12.50;;
35418;SDS011;21525;41.240;16.500;2023-03-23T06:57:43;17.83;;;12.10;;
35418;SDS011;21525;41.240;16.500;2023-03-23T07:00:11;20.13;;;13.98;;
35418;SDS011;21525;41.240;16.500;2023-03-23T07:02:40;14.13;;;12.68;;
35418;SDS011;21525;41.240;16.500;2023-03-23T07:05:07;22.02;;;14.35;;
35418;SDS011;21525;41.240;16.500;2023-03-23T07:07:36;17.33;;;14.07;;
35418;SDS011;21525;41.240;16.500;2023-03-23T07:10:28;20.75;;;15.18;;
35418;SDS011;21525;41.240;16.500;2023-03-23T07:12:55;23.00;;;16.33;;
35418;SDS011;21525;41.240;16.500;2023-03-23T07:15:21;17.00;;;14.85;;
35418;SDS011;21525;41.240;16.500;2023-03-23T07:17:50;18.70;;;14.80;;
35418;SDS011;21525;41.240;16.500;2023-03-23T07:20:28;27.15;;;15.73;;
35418;SDS011;21525;41.240;16.500;2023-03-23T07:22:54;22.30;;;14.85;;
35418;SDS011;21525;41.240;16.500;2023-03-23T07:25:36;20.02;;;15.05;;
35418;SDS011;21525;41.240;16.500;2023-03-23T07:28:03;19.92;;;13.77;;
35418;SDS011;21525;41.240;16.500;2023-03-23T07:30:29;22.83;;;16.35;;
35418;SDS011;21525;41.240;16.500;2023-03-23T07:32:56;23.42;;;15.43;;
35418;SDS011;21525;41.240;16.500;2023-03-23T07:35:23;26.38;;;15.32;;
35418;SDS011;21525;41.240;16.500;2023-03-23T07:38:03;20.70;;;14.32;;
35418;SDS011;21525;41.240;16.500;2023-03-23T07:40:31;19.35;;;14.95;;
35418;SDS011;21525;41.240;16.500;2023-03-23T07:43:12;23.73;;;14.05;;
35418;SDS011;21525;41.240;16.500;2023-03-23T07:45:58;30.63;;;16.20;;
35418;SDS011;21525;41.240;16.500;2023-03-23T07:48:32;27.00;;;16.30;;
35418;SDS011;21525;41.240;16.500;2023-03-23T07:50:58;27.35;;;18.40;;
35418;SDS011;21525;41.240;16.500;2023-03-23T07:53:25;28.50;;;20.77;;
35418;SDS011;21525;41.240;16.500;2023-03-23T07:55:59;29.67;;;21.45;;
35418;SDS011;21525;41.240;16.500;2023-03-23T07:58:48;31.38;;;22.25;;
35418;SDS011;21525;41.240;16.500;2023-03-23T08:01:15;31.17;;;22.70;;
35418;SDS011;21525;41.240;16.500;2023-03-23T08:03:48;35.28;;;22.80;;
35418;SDS011;21525;41.240;16.500;2023-03-23T08:06:34;29.77;;;23.50;;
35418;SDS011;21525;41.240;16.500;2023-03-23T08:09:23;32.78;;;24.20;;
35418;SDS011;21525;41.240;16.500;2023-03-23T08:12:01;35.50;;;23.20;;
35418;SDS011;21525;41.240;16.500;2023-03-23T08:14:30;38.60;;;26.45;;
35418;SDS011;21525;41.240;16.500;2023-03-23T08:17:27;32.08;;;23.50;;
35418;SDS011;21525;41.240;16.500;2023-03-23T08:20:22;33.33;;;22.23;;
35418;SDS011;21525;41.240;16.500;2023-03-23T08:22:59;24.00;;;18.50;;
35418;SDS011;21525;41.240;16.500;2023-03-23T08:25:37;22.60;;;16.73;;
35418;SDS011;21525;41.240;16.500;2023-03-23T08:28:27;21.35;;;13.88;;
35418;SDS011;21525;41.240;16.500;2023-03-23T08:31:12;16.48;;;14.07;;
35418;SDS011;21525;41.240;16.500;2023-03-23T08:34:07;18.20;;;12.57;;
35418;SDS011;21525;41.240;16.500;2023-03-23T08:36:51;18.70;;;14.02;;
35418;SDS011;21525;41.240;16.500;2023-03-23T08:39:24;20.40;;;14.40;;
35418;SDS011;21525;41.240;16.500;2023-03-23T08:41:59;16.40;;;12.30;;
35418;SDS011;21525;41.240;16.500;2023-03-23T08:44:44;22.33;;;11.60;;
35418;SDS011;21525;41.240;16.500;2023-03-23T08:47:18;17.15;;;10.38;;
35418;SDS011;21525;41.240;16.500;2023-03-23T08:50:09;14.25;;;9.32;;
35418;SDS011;21525;41.240;16.500;2023-03-23T08:52:56;12.60;;;9.07;;
35418;SDS011;21525;41.240;16.500;2023-03-23T08:56:04;12.73;;;9.13;;
35418;SDS011;21525;41.240;16.500;2023-03-23T08:58:52;17.15;;;10.55;;
35418;SDS011;21525;41.240;16.500;2023-03-23T09:01:32;16.55;;;10.82;;
35418;SDS011;21525;41.240;16.500;2023-03-23T09:04:14;14.90;;;10.05;;
35418;SDS011;21525;41.240;16.500;2023-03-23T09:06:55;16.65;;;11.73;;
35418;SDS011;21525;41.240;16.500;2023-03-23T09:09:23;14.30;;;9.95;;
35418;SDS011;21525;41.240;16.500;2023-03-23T09:11:49;15.68;;;10.32;;
35418;SDS011;21525;41.240;16.500;2023-03-23T09:14:15;19.23;;;12.25;;
35418;SDS011;21525;41.240;16.500;2023-03-23T09:16:41;15.68;;;10.63;;
35418;SDS011;21525;41.240;16.500;2023-03-23T09:19:06;17.10;;;12.68;;
35418;SDS011;21525;41.240;16.500;2023-03-23T09:21:34;22.75;;;16.60;;
35418;SDS011;21525;41.240;16.500;2023-03-23T09:24:01;20.83;;;14.70;;
35418;SDS011;21525;41.240;16.500;2023-03-23T09:26:27;18.00;;;14.23;;
35418;SDS011;21525;41.240;16.500;2023-03-23T09:28:53;20.58;;;14.57;;
35418;SDS011;21525;41.240;16.500;2023-03-23T09:31:19;21.70;;;15.50;;
35418;SDS011;21525;41.240;16.500;2023-03-23T09:33:49;17.33;;;11.82;;
35418;SDS011;21525;41.240;16.500;2023-03-23T09:36:18;19.55;;;13.63;;
35418;SDS011;21525;41.240;16.500;2023-03-23T09:38:47;17.95;;;13.02;;
35418;SDS011;21525;41.240;16.500;2023-03-23T09:41:19;18.58;;;14.75;;
35418;SDS011;21525;41.240;16.500;2023-03-23T09:49:43;21.45;;;16.30;;
35418;SDS011;21525;41.240;16.500;2023-03-23T09:52:15;17.85;;;13.10;;
35418;SDS011;21525;41.240;16.500;2023-03-23T09:54:44;19.25;;;13.35;;
35418;SDS011;21525;41.240;16.500;2023-03-23T09:57:24;15.77;;;11.25;;
35418;SDS011;21525;41.240;16.500;2023-03-23T10:00:01;17.63;;;13.60;;
35418;SDS011;21525;41.240;16.500;2023-03-23T10:03:14;17.40;;;14.07;;
35418;SDS011;21525;41.240;16.500;2023-03-23T10:05:34;16.25;;;12.75;;
35418;SDS011;21525;41.240;16.500;2023-03-23T10:08:14;25.05;;;13.63;;
35418;SDS011;21525;41.240;16.500;2023-03-23T10:19:31;13.40;;;10.20;;
35418;SDS011;21525;41.240;16.500;2023-03-23T10:22:03;16.75;;;10.57;;
35418;SDS011;21525;41.240;16.500;2023-03-23T10:24:36;14.05;;;9.52;;
35418;SDS011;21525;41.240;16.500;2023-03-23T10:35:35;14.25;;;10.18;;
35418;SDS011;21525;41.240;16.500;2023-03-23T10:38:09;13.35;;;9.43;;
35418;SDS011;21525;41.240;16.500;2023-03-23T10:40:49;12.23;;;8.70;;
35418;SDS011;21525;41.240;16.500;2023-03-23T10:43:22;11.85;;;8.52;;
35418;SDS011;21525;41.240;16.500;2023-03-23T10:45:55;16.05;;;11.00;;
35418;SDS011;21525;41.240;16.500;2023-03-23T10:48:41;14.20;;;10.57;;
35418;SDS011;21525;41.240;16.500;2023-03-23T10:51:10;12.38;;;8.75;;
35418;SDS011;21525;41.240;16.500;2023-03-23T10:53:45;15.75;;;9.32;;
35418;SDS011;21525;41.240;16.500;2023-03-23T10:56:23;13.27;;;8.00;;
35418;SDS011;21525;41.240;16.500;2023-03-23T10:58:51;13.00;;;8.98;;
35418;SDS011;21525;41.240;16.500;2023-03-23T11:01:18;12.50;;;8.48;;
35418;SDS011;21525;41.240;16.500;2023-03-23T11:03:46;9.40;;;7.53;;
35418;SDS011;21525;41.240;16.500;2023-03-23T11:06:20;7.60;;;6.13;;
35418;SDS011;21525;41.240;16.500;2023-03-23T11:11:38;10.43;;;7.28;;
35418;SDS011;21525;41.240;16.500;2023-03-23T11:17:02;9.48;;;7.07;;
35418;SDS011;21525;41.240;16.500;2023-03-23T11:19:35;6.97;;;5.15;;
35418;SDS011;21525;41.240;16.500;2023-03-23T11:24:31;6.43;;;5.38;;
35418;SDS011;21525;41.240;16.500;2023-03-23T11:27:02;8.52;;;6.57;;
35418;SDS011;21525;41.240;16.500;2023-03-23T11:29:32;8.65;;;5.40;;
35418;SDS011;21525;41.240;16.500;2023-03-23T11:34:25;8.70;;;6.07;;
35418;SDS011;21525;41.240;16.500;2023-03-23T11:39:29;9.43;;;4.82;;
35418;SDS011;21525;41.240;16.500;2023-03-23T11:41:58;11.10;;;5.97;;
35418;SDS011;21525;41.240;16.500;2023-03-23T11:44:34;9.45;;;6.72;;
35418;SDS011;21525;41.240;16.500;2023-03-23T11:47:15;8.82;;;5.10;;
35418;SDS011;21525;41.240;16.500;2023-03-23T11:50:04;7.07;;;4.88;;
35418;SDS011;21525;41.240;16.500;2023-03-23T11:55:49;7.82;;;4.57;;
35418;SDS011;21525;41.240;16.500;2023-03-23T11:58:19;6.13;;;4.35;;
35418;SDS011;21525;41.240;16.500;2023-03-23T12:00:51;7.70;;;4.82;;
35418;SDS011;21525;41.240;16.500;2023-03-23T12:06:18;6.68;;;4.70;;
35418;SDS011;21525;41.240;16.500;2023-03-23T12:09:02;6.88;;;4.32;;
35418;SDS011;21525;41.240;16.500;2023-03-23T12:14:33;8.75;;;6.05;;
35418;SDS011;21525;41.240;16.500;2023-03-23T12:28:09;9.13;;;5.25;;
35418;SDS011;21525;41.240;16.500;2023-03-23T12:30:57;7.15;;;4.90;;
35418;SDS011;21525;41.240;16.500;2023-03-23T12:50:34;8.15;;;4.93;;
35418;SDS011;21525;41.240;16.500;2023-03-23T12:53:08;7.40;;;4.45;;
35418;SDS011;21525;41.240;16.500;2023-03-23T12:58:20;9.07;;;3.88;;
35418;SDS011;21525;41.240;16.500;2023-03-23T13:03:32;5.20;;;3.55;;
35418;SDS011;21525;41.240;16.500;2023-03-23T13:06:08;7.10;;;4.10;;
35418;SDS011;21525;41.240;16.500;2023-03-23T13:11:34;7.05;;;4.00;;
35418;SDS011;21525;41.240;16.500;2023-03-23T13:22:32;6.60;;;4.32;;
35418;SDS011;21525;41.240;16.500;2023-03-23T13:25:09;6.65;;;3.88;;
35418;SDS011;21525;41.240;16.500;2023-03-23T13:27:40;6.13;;;4.07;;
35418;SDS011;21525;41.240;16.500;2023-03-23T13:30:17;4.97;;;3.50;;
35418;SDS011;21525;41.240;16.500;2023-03-23T13:32:47;6.68;;;3.47;;
35418;SDS011;21525;41.240;16.500;2023-03-23T13:35:13;5.43;;;3.85;;
35418;SDS011;21525;41.240;16.500;2023-03-23T13:37:46;9.10;;;3.97;;
35418;SDS011;21525;41.240;16.500;2023-03-23T13:42:57;5.72;;;3.55;;
35418;SDS011;21525;41.240;16.500;2023-03-23T13:50:44;5.53;;;3.70;;
35418;SDS011;21525;41.240;16.500;2023-03-23T13:53:15;8.27;;;3.80;;
35418;SDS011;21525;41.240;16.500;2023-03-23T13:55:50;5.70;;;4.05;;
35418;SDS011;21525;41.240;16.500;2023-03-23T14:03:41;6.53;;;3.60;;
35418;SDS011;21525;41.240;16.500;2023-03-23T14:06:15;6.75;;;3.53;;
35418;SDS011;21525;41.240;16.500;2023-03-23T14:09:05;6.63;;;4.03;;
35418;SDS011;21525;41.240;16.500;2023-03-23T14:11:45;5.53;;;3.90;;
35418;SDS011;21525;41.240;16.500;2023-03-23T14:14:22;6.03;;;3.58;;
35418;SDS011;21525;41.240;16.500;2023-03-23T14:16:52;5.55;;;3.53;;
35418;SDS011;21525;41.240;16.500;2023-03-23T14:21:55;5.53;;;3.65;;
35418;SDS011;21525;41.240;16.500;2023-03-23T14:24:28;6.67;;;3.57;;
35418;SDS011;21525;41.240;16.500;2023-03-23T14:27:29;5.30;;;3.33;;
35418;SDS011;21525;41.240;16.500;2023-03-23T14:29:57;6.65;;;4.20;;
35418;SDS011;21525;41.240;16.500;2023-03-23T14:32:24;5.90;;;3.85;;
35418;SDS011;21525;41.240;16.500;2023-03-23T14:34:53;7.30;;;4.40;;
35418;SDS011;21525;41.240;16.500;2023-03-23T14:37:20;8.27;;;3.97;;
35418;SDS011;21525;41.240;16.500;2023-03-23T14:39:48;6.00;;;3.50;;
35418;SDS011;21525;41.240;16.500;2023-03-23T14:42:16;5.40;;;3.28;;
35418;SDS011;21525;41.240;16.500;2023-03-23T14:44:49;5.85;;;3.35;;
35418;SDS011;21525;41.240;16.500;2023-03-23T14:47:20;5.35;;;3.17;;
35418;SDS011;21525;41.240;16.500;2023-03-23T14:49:56;4.25;;;3.30;;
35418;SDS011;21525;41.240;16.500;2023-03-23T14:54:52;6.15;;;2.90;;
35418;SDS011;21525;41.240;16.500;2023-03-23T14:57:19;6.78;;;3.60;;
35418;SDS011;21525;41.240;16.500;2023-03-23T14:59:54;8.45;;;3.92;;
35418;SDS011;21525;41.240;16.500;2023-03-23T15:02:24;4.05;;;3.55;;
35418;SDS011;21525;41.240;16.500;2023-03-23T15:04:58;5.28;;;3.50;;
35418;SDS011;21525;41.240;16.500;2023-03-23T15:07:31;6.00;;;3.80;;
35418;SDS011;21525;41.240;16.500;2023-03-23T15:10:05;7.30;;;4.70;;
35418;SDS011;21525;41.240;16.500;2023-03-23T15:12:32;7.38;;;4.80;;
35418;SDS011;21525;41.240;16.500;2023-03-23T15:15:01;6.50;;;4.35;;
35418;SDS011;21525;41.240;16.500;2023-03-23T15:17:35;5.63;;;4.13;;
35418;SDS011;21525;41.240;16.500;2023-03-23T15:20:17;7.57;;;4.78;;
35418;SDS011;21525;41.240;16.500;2023-03-23T15:22:47;4.35;;;3.80;;
35418;SDS011;21525;41.240;16.500;2023-03-23T15:25:21;6.13;;;4.38;;
35418;SDS011;21525;41.240;16.500;2023-03-23T15:27:50;7.50;;;4.40;;
35418;SDS011;21525;41.240;16.500;2023-03-23T15:32:52;6.68;;;4.93;;
35418;SDS011;21525;41.240;16.500;2023-03-23T15:35:22;8.30;;;5.15;;
35418;SDS011;21525;41.240;16.500;2023-03-23T15:37:51;6.72;;;4.68;;
35418;SDS011;21525;41.240;16.500;2023-03-23T15:40:23;7.05;;;4.55;;
35418;SDS011;21525;41.240;16.500;2023-03-23T15:43:05;6.78;;;4.72;;
35418;SDS011;21525;41.240;16.500;2023-03-23T15:46:03;6.03;;;4.25;;
35418;SDS011;21525;41.240;16.500;2023-03-23T15:48:45;6.25;;;4.47;;
35418;SDS011;21525;41.240;16.500;2023-03-23T15:51:12;6.85;;;4.03;;
35418;SDS011;21525;41.240;16.500;2023-03-23T15:53:39;10.30;;;4.75;;
35418;SDS011;21525;41.240;16.500;2023-03-23T15:56:06;5.15;;;4.32;;
35418;SDS011;21525;41.240;16.500;2023-03-23T15:58:33;7.45;;;4.28;;
35418;SDS011;21525;41.240;16.500;2023-03-23T16:01:03;5.88;;;4.18;;
35418;SDS011;21525;41.240;16.500;2023-03-23T16:03:36;6.30;;;4.85;;
35418;SDS011;21525;41.240;16.500;2023-03-23T16:06:02;8.57;;;4.63;;
35418;SDS011;21525;41.240;16.500;2023-03-23T16:08:28;6.70;;;4.60;;
35418;SDS011;21525;41.240;16.500;2023-03-23T16:10:54;7.07;;;5.25;;
35418;SDS011;21525;41.240;16.500;2023-03-23T16:13:20;7.60;;;5.05;;
35418;SDS011;21525;41.240;16.500;2023-03-23T16:15:47;7.50;;;4.32;;
35418;SDS011;21525;41.240;16.500;2023-03-23T16:18:17;6.18;;;4.25;;
35418;SDS011;21525;41.240;16.500;2023-03-23T16:20:47;8.30;;;4.78;;
35418;SDS011;21525;41.240;16.500;2023-03-23T16:23:14;7.93;;;4.20;;
35418;SDS011;21525;41.240;16.500;2023-03-23T16:25:40;7.53;;;3.90;;
35418;SDS011;21525;41.240;16.500;2023-03-23T16:28:08;6.47;;;4.25;;
35418;SDS011;21525;41.240;16.500;2023-03-23T16:30:36;6.22;;;3.83;;
35418;SDS011;21525;41.240;16.500;2023-03-23T16:33:06;8.18;;;4.10;;
35418;SDS011;21525;41.240;16.500;2023-03-23T16:35:32;5.75;;;4.00;;
35418;SDS011;21525;41.240;16.500;2023-03-23T16:37:57;5.97;;;4.13;;
35418;SDS011;21525;41.240;16.500;2023-03-23T16:40:23;9.00;;;4.20;;
35418;SDS011;21525;41.240;16.500;2023-03-23T16:42:50;8.50;;;4.55;;
35418;SDS011;21525;41.240;16.500;2023-03-23T16:45:16;8.35;;;4.07;;
35418;SDS011;21525;41.240;16.500;2023-03-23T16:47:43;10.68;;;6.00;;
35418;SDS011;21525;41.240;16.500;2023-03-23T16:50:11;10.00;;;5.40;;
35418;SDS011;21525;41.240;16.500;2023-03-23T16:52:42;6.22;;;4.13;;
35418;SDS011;21525;41.240;16.500;2023-03-23T16:55:12;10.70;;;5.82;;
35418;SDS011;21525;41.240;16.500;2023-03-23T16:57:40;7.53;;;4.60;;
35418;SDS011;21525;41.240;16.500;2023-03-23T17:00:08;9.77;;;4.95;;
35418;SDS011;21525;41.240;16.500;2023-03-23T17:02:36;6.47;;;4.85;;
35418;SDS011;21525;41.240;16.500;2023-03-23T17:05:04;8.48;;;4.72;;
35418;SDS011;21525;41.240;16.500;2023-03-23T17:07:30;7.05;;;4.20;;